Time;durP1;ratioP1;P1;durP2;ratioP2;P2;SDS_P1;SDS_P2;PMS_P1;PMS_P2;Temp;Humidity;BMP_temperature;BMP_pressure;BME280_temperature;BME280_humidity;BME280_pressure;Samples;Min_cycle;Max_cycle;Signal;HPM_P1;HPM_P2
2023/11/25 00:02:14;;;;;;;2.63;1.70;;;;;;;;;;6282277;28;20304;-69
2023/11/25 00:05:19;;;;;;;1.97;1.97;;;;;;;;;;6281515;28;20438;-68
2023/11/25 00:08:25;;;;;;;1.70;1.70;;;;;;;;;;6282000;28;20326;-72
2023/11/25 00:11:29;;;;;;;2.53;1.70;;;;;;;;;;6263509;28;20471;-69
2023/11/25 00:14:33;;;;;;;1.97;1.60;;;;;;;;;;6279305;28;20302;-69
2023/11/25 00:17:39;;;;;;;1.80;1.70;;;;;;;;;;6280720;28;20786;-69
2023/11/25 00:20:42;;;;;;;1.97;1.90;;;;;;;;;;6254472;28;20241;-69
2023/11/25 00:23:47;;;;;;;1.47;1.47;;;;;;;;;;6281108;28;20318;-68
2023/11/25 00:26:51;;;;;;;2.10;2.00;;;;;;;;;;6285942;28;20632;-70
2023/11/25 00:29:55;;;;;;;2.03;1.93;;;;;;;;;;6286880;28;20261;-71
2023/11/25 00:33:02;;;;;;;1.50;1.50;;;;;;;;;;6286563;28;20325;-69
2023/11/25 00:36:06;;;;;;;1.70;1.70;;;;;;;;;;6281404;28;20296;-68
2023/11/25 00:39:11;;;;;;;2.10;2.10;;;;;;;;;;6295926;28;20295;-68
2023/11/25 00:42:15;;;;;;;1.90;1.90;;;;;;;;;;6236711;28;20319;-69
2023/11/25 00:45:19;;;;;;;1.80;1.70;;;;;;;;;;6292777;28;20329;-68
2023/11/25 00:48:25;;;;;;;2.37;2.27;;;;;;;;;;6288473;28;20358;-68
2023/11/25 00:51:29;;;;;;;2.00;2.00;;;;;;;;;;6272607;28;20302;-69
2023/11/25 00:54:33;;;;;;;2.00;1.90;;;;;;;;;;6285127;28;20305;-68
2023/11/25 00:57:37;;;;;;;1.77;1.70;;;;;;;;;;6281537;28;20303;-68
2023/11/25 01:00:41;;;;;;;2.30;2.20;;;;;;;;;;6250719;28;20286;-69
2023/11/25 01:03:46;;;;;;;2.00;2.00;;;;;;;;;;6252721;28;20331;-68
2023/11/25 01:06:50;;;;;;;2.43;2.23;;;;;;;;;;6256332;28;20329;-69
2023/11/25 01:09:54;;;;;;;2.30;2.20;;;;;;;;;;6252604;28;20784;-69
2023/11/25 01:12:58;;;;;;;2.37;2.23;;;;;;;;;;6255736;28;20374;-69
2023/11/25 01:16:02;;;;;;;2.07;1.90;;;;;;;;;;6271097;28;20291;-70
2023/11/25 01:19:07;;;;;;;2.03;2.00;;;;;;;;;;6255459;28;20592;-70
2023/11/25 01:22:11;;;;;;;2.23;2.13;;;;;;;;;;6255507;28;20304;-72
2023/11/25 01:25:15;;;;;;;2.30;2.10;;;;;;;;;;6247616;28;20299;-70
2023/11/25 01:28:19;;;;;;;2.23;2.13;;;;;;;;;;6254862;28;20304;-70
2023/11/25 01:31:23;;;;;;;1.90;1.90;;;;;;;;;;6240125;28;20312;-70
2023/11/25 01:34:29;;;;;;;2.53;2.47;;;;;;;;;;6254070;28;20322;-69
2023/11/25 01:37:33;;;;;;;3.20;1.97;;;;;;;;;;6256489;28;20298;-69
2023/11/25 01:40:38;;;;;;;2.40;2.20;;;;;;;;;;6244426;28;20641;-69
2023/11/25 01:43:41;;;;;;;2.90;2.20;;;;;;;;;;6269901;28;20291;-71
2023/11/25 01:46:47;;;;;;;2.10;2.10;;;;;;;;;;6269928;28;20286;-69
2023/11/25 01:49:52;;;;;;;2.10;2.00;;;;;;;;;;6243634;28;20499;-71
2023/11/25 01:52:58;;;;;;;2.37;2.27;;;;;;;;;;6270134;28;20310;-69
2023/11/25 01:56:02;;;;;;;3.80;2.10;;;;;;;;;;6241384;28;20620;-69
2023/11/25 01:59:07;;;;;;;2.20;2.10;;;;;;;;;;6260602;28;20441;-68
2023/11/25 02:02:12;;;;;;;2.37;2.27;;;;;;;;;;6269870;28;20309;-71
2023/11/25 02:05:18;;;;;;;2.00;2.00;;;;;;;;;;6267966;28;20303;-69
2023/11/25 02:08:22;;;;;;;4.23;2.47;;;;;;;;;;6278983;28;20293;-69
2023/11/25 02:11:26;;;;;;;2.20;2.10;;;;;;;;;;6253391;28;20295;-72
2023/11/25 02:14:30;;;;;;;2.60;2.30;;;;;;;;;;6278742;28;20306;-69
2023/11/25 02:17:34;;;;;;;2.00;2.00;;;;;;;;;;6278877;28;20389;-71
2023/11/25 02:20:41;;;;;;;2.03;2.00;;;;;;;;;;6258171;28;20302;-68
2023/11/25 02:23:47;;;;;;;2.17;2.03;;;;;;;;;;6285492;28;20330;-69
2023/11/25 02:26:58;;;;;;;1.87;1.87;;;;;;;;;;6260426;28;20310;-70
2023/11/25 02:30:05;;;;;;;1.93;1.90;;;;;;;;;;6278056;28;20580;-69
2023/11/25 02:33:09;;;;;;;4.23;2.10;;;;;;;;;;6277748;28;20298;-68
2023/11/25 02:36:14;;;;;;;2.30;2.20;;;;;;;;;;6293477;28;20298;-70
2023/11/25 02:39:20;;;;;;;2.20;2.10;;;;;;;;;;6277273;28;20290;-68
2023/11/25 02:42:23;;;;;;;1.77;1.77;;;;;;;;;;6278310;28;20294;-70
2023/11/25 02:45:27;;;;;;;2.27;2.17;;;;;;;;;;6293158;28;20289;-70
2023/11/25 02:48:32;;;;;;;2.00;2.00;;;;;;;;;;6260383;28;20317;-70
2023/11/25 02:51:37;;;;;;;3.07;2.67;;;;;;;;;;6251484;28;20314;-69
2023/11/25 02:54:42;;;;;;;2.10;2.10;;;;;;;;;;6280793;28;20294;-69
2023/11/25 02:57:46;;;;;;;3.43;2.83;;;;;;;;;;6278539;28;20570;-69
2023/11/25 03:01:00;;;;;;;3.07;2.40;;;;;;;;;;6276563;28;20294;-68
2023/11/25 03:04:05;;;;;;;2.83;2.30;;;;;;;;;;6278072;28;20312;-69
2023/11/25 03:07:09;;;;;;;3.90;2.40;;;;;;;;;;6294475;28;20292;-67
2023/11/25 03:10:16;;;;;;;2.20;2.10;;;;;;;;;;6282743;28;20359;-69
2023/11/25 03:13:20;;;;;;;2.60;2.40;;;;;;;;;;6282685;28;20625;-70
2023/11/25 03:16:24;;;;;;;1.87;1.80;;;;;;;;;;6283282;28;20313;-69
2023/11/25 03:19:28;;;;;;;1.97;1.87;;;;;;;;;;6283069;28;20301;-69
2023/11/25 03:22:32;;;;;;;2.17;2.10;;;;;;;;;;6265313;28;20448;-68
2023/11/25 03:25:38;;;;;;;4.47;2.00;;;;;;;;;;6297554;28;20613;-70
2023/11/25 03:28:44;;;;;;;2.13;2.00;;;;;;;;;;6262519;28;20289;-68
2023/11/25 03:31:48;;;;;;;1.77;1.67;;;;;;;;;;6264558;28;20296;-69
2023/11/25 03:34:52;;;;;;;4.10;1.70;;;;;;;;;;6282748;28;20302;-70
2023/11/25 03:37:56;;;;;;;1.60;1.60;;;;;;;;;;6282381;28;20294;-69
2023/11/25 03:41:01;;;;;;;1.60;1.53;;;;;;;;;;6283139;28;20326;-70
2023/11/25 03:44:06;;;;;;;2.93;1.50;;;;;;;;;;6296993;28;20576;-68
2023/11/25 03:47:10;;;;;;;1.33;1.33;;;;;;;;;;6297633;28;20292;-69
2023/11/25 03:50:15;;;;;;;1.30;1.30;;;;;;;;;;6297369;28;20293;-69
2023/11/25 03:53:19;;;;;;;1.40;1.30;;;;;;;;;;6281650;28;20293;-69
2023/11/25 03:56:25;;;;;;;1.30;1.30;;;;;;;;;;6282516;28;20670;-69
2023/11/25 03:59:29;;;;;;;2.20;1.40;;;;;;;;;;6262461;28;20317;-69
2023/11/25 04:02:33;;;;;;;1.30;1.30;;;;;;;;;;6263226;28;20832;-69
2023/11/25 04:05:37;;;;;;;1.10;1.10;;;;;;;;;;6279854;28;20389;-69
2023/11/25 04:08:41;;;;;;;1.50;1.40;;;;;;;;;;6254680;28;20291;-69
2023/11/25 04:11:46;;;;;;;1.00;1.00;;;;;;;;;;6280074;28;20299;-69
2023/11/25 04:14:51;;;;;;;1.20;1.20;;;;;;;;;;6288839;28;20352;-70
2023/11/25 04:17:54;;;;;;;1.30;1.30;;;;;;;;;;6280570;28;20286;-70
2023/11/25 04:21:20;;;;;;;1.20;1.20;;;;;;;;;;6252508;28;20298;-70
2023/11/25 04:24:26;;;;;;;0.83;0.83;;;;;;;;;;6286419;28;20285;-69
2023/11/25 04:27:32;;;;;;;1.03;1.03;;;;;;;;;;6263138;28;20307;-69
2023/11/25 04:30:35;;;;;;;0.90;0.90;;;;;;;;;;6280611;28;20300;-69
2023/11/25 04:33:39;;;;;;;1.33;1.33;;;;;;;;;;6280379;28;20302;-68
2023/11/25 04:36:44;;;;;;;1.50;0.90;;;;;;;;;;6296544;28;20315;-70
2023/11/25 04:39:48;;;;;;;1.20;1.00;;;;;;;;;;6280690;28;20442;-69
2023/11/25 04:42:53;;;;;;;1.00;1.00;;;;;;;;;;6280605;28;20310;-69
2023/11/25 04:45:57;;;;;;;1.00;1.00;;;;;;;;;;6281889;28;20306;-70
2023/11/25 04:49:00;;;;;;;1.27;1.17;;;;;;;;;;6281559;28;20298;-69
2023/11/25 04:52:05;;;;;;;0.90;0.90;;;;;;;;;;6281355;28;20334;-69
2023/11/25 04:55:09;;;;;;;1.00;1.00;;;;;;;;;;6280475;28;20310;-69
2023/11/25 04:58:14;;;;;;;1.00;1.00;;;;;;;;;;6280347;28;20286;-69
2023/11/25 05:01:18;;;;;;;0.93;0.90;;;;;;;;;;6279182;28;20314;-70
2023/11/25 05:04:22;;;;;;;0.80;0.80;;;;;;;;;;6280220;28;20245;-70
2023/11/25 05:07:26;;;;;;;0.80;0.80;;;;;;;;;;6278180;28;20550;-68
2023/11/25 05:10:30;;;;;;;1.33;1.23;;;;;;;;;;6287965;28;20298;-69
2023/11/25 05:13:36;;;;;;;1.00;1.00;;;;;;;;;;6279723;28;20294;-70
2023/11/25 05:16:41;;;;;;;1.90;1.00;;;;;;;;;;6295477;28;20567;-69
2023/11/25 05:19:44;;;;;;;1.90;1.10;;;;;;;;;;6279886;28;20461;-68
2023/11/25 05:22:48;;;;;;;0.97;0.97;;;;;;;;;;6279917;28;20298;-68
2023/11/25 05:25:54;;;;;;;1.30;1.17;;;;;;;;;;6280262;28;20290;-69
2023/11/25 05:28:59;;;;;;;1.80;0.93;;;;;;;;;;6279704;28;20291;-70
2023/11/25 05:32:04;;;;;;;2.90;0.90;;;;;;;;;;6281337;28;20294;-69
2023/11/25 05:35:08;;;;;;;0.93;0.93;;;;;;;;;;6269819;28;20573;-70
2023/11/25 05:38:12;;;;;;;1.50;0.90;;;;;;;;;;6259116;28;20285;-70
2023/11/25 05:41:17;;;;;;;0.90;0.90;;;;;;;;;;6287611;28;20302;-70
2023/11/25 05:44:25;;;;;;;0.80;0.80;;;;;;;;;;6279494;28;20299;-68
2023/11/25 05:47:29;;;;;;;1.00;1.00;;;;;;;;;;6279746;28;20315;-69
2023/11/25 05:50:33;;;;;;;1.00;0.90;;;;;;;;;;6279373;28;20295;-69
2023/11/25 05:53:37;;;;;;;3.50;1.13;;;;;;;;;;6294196;28;20323;-70
2023/11/25 05:56:41;;;;;;;1.57;1.13;;;;;;;;;;6279919;28;20610;-69
2023/11/25 05:59:46;;;;;;;1.10;1.10;;;;;;;;;;6282553;28;20475;-68
2023/11/25 06:02:50;;;;;;;1.17;1.17;;;;;;;;;;6278573;28;20317;-70
2023/11/25 06:05:54;;;;;;;1.37;1.13;;;;;;;;;;6279035;28;20306;-69
2023/11/25 06:08:57;;;;;;;1.03;1.03;;;;;;;;;;6278569;28;20307;-69
2023/11/25 06:12:01;;;;;;;1.47;1.20;;;;;;;;;;6279484;28;20479;-69
2023/11/25 06:15:09;;;;;;;1.13;1.13;;;;;;;;;;6278457;28;20350;-69
2023/11/25 06:18:14;;;;;;;1.80;1.20;;;;;;;;;;6277910;28;20310;-69
2023/11/25 06:21:19;;;;;;;1.20;1.20;;;;;;;;;;6278452;28;20490;-69
2023/11/25 06:24:23;;;;;;;1.10;1.10;;;;;;;;;;6278145;28;20322;-69
2023/11/25 06:27:27;;;;;;;1.10;1.10;;;;;;;;;;6278542;28;20309;-70
2023/11/25 06:30:32;;;;;;;1.40;1.07;;;;;;;;;;6278064;28;20306;-69
2023/11/25 06:33:38;;;;;;;1.17;1.17;;;;;;;;;;6278177;28;20286;-68
2023/11/25 06:36:44;;;;;;;1.13;1.00;;;;;;;;;;6279183;28;20288;-70
2023/11/25 06:39:47;;;;;;;1.10;1.10;;;;;;;;;;6278544;28;20295;-70
2023/11/25 06:42:53;;;;;;;1.30;1.20;;;;;;;;;;6282349;28;20298;-70
2023/11/25 06:45:59;;;;;;;1.20;1.20;;;;;;;;;;6255751;28;20300;-69
2023/11/25 06:49:03;;;;;;;1.03;1.03;;;;;;;;;;6282898;28;20299;-68
2023/11/25 06:52:08;;;;;;;1.17;1.10;;;;;;;;;;6271854;28;20307;-68
2023/11/25 06:55:12;;;;;;;2.03;1.10;;;;;;;;;;6274557;28;20599;-69
2023/11/25 06:58:16;;;;;;;1.53;1.43;;;;;;;;;;6282630;28;20360;-70
2023/11/25 07:01:21;;;;;;;1.10;1.10;;;;;;;;;;6256679;28;20288;-69
2023/11/25 07:04:26;;;;;;;1.60;1.13;;;;;;;;;;6263658;28;20305;-69
2023/11/25 07:07:30;;;;;;;1.10;1.10;;;;;;;;;;6265237;28;20342;-68
2023/11/25 07:10:34;;;;;;;1.10;1.10;;;;;;;;;;6282320;28;20304;-68
2023/11/25 07:13:39;;;;;;;1.07;1.07;;;;;;;;;;6282623;28;20291;-69
2023/11/25 07:16:45;;;;;;;1.10;1.10;;;;;;;;;;6283303;28;20599;-69
2023/11/25 07:19:49;;;;;;;1.00;1.00;;;;;;;;;;6282383;28;20296;-70
2023/11/25 07:22:53;;;;;;;0.97;0.97;;;;;;;;;;6282505;28;20672;-68
2023/11/25 07:25:58;;;;;;;1.10;1.10;;;;;;;;;;6282425;28;20303;-70
2023/11/25 07:29:04;;;;;;;1.20;1.20;;;;;;;;;;6281929;28;20310;-70
2023/11/25 07:32:12;;;;;;;1.23;1.23;;;;;;;;;;6282606;28;20311;-71
2023/11/25 07:35:16;;;;;;;1.60;1.60;;;;;;;;;;6282182;28;20298;-69
2023/11/25 07:38:19;;;;;;;1.20;1.20;;;;;;;;;;6282047;28;20302;-69
2023/11/25 07:41:24;;;;;;;1.93;1.30;;;;;;;;;;6282284;28;20315;-69
2023/11/25 07:44:30;;;;;;;1.27;1.27;;;;;;;;;;6282306;28;20229;-68
2023/11/25 07:47:35;;;;;;;3.13;1.43;;;;;;;;;;6282667;28;20287;-68
2023/11/25 07:50:42;;;;;;;1.50;1.50;;;;;;;;;;6282091;28;20314;-70
2023/11/25 07:53:51;;;;;;;1.27;1.27;;;;;;;;;;6279922;28;20291;-70
2023/11/25 07:56:55;;;;;;;1.40;1.33;;;;;;;;;;6282237;28;20302;-69
2023/11/25 07:59:59;;;;;;;1.20;1.20;;;;;;;;;;6280199;28;20317;-70
2023/11/25 08:03:04;;;;;;;1.37;1.33;;;;;;;;;;6281712;28;20808;-69
2023/11/25 08:06:08;;;;;;;4.13;1.50;;;;;;;;;;6281751;28;20303;-70
2023/11/25 08:09:14;;;;;;;1.23;1.23;;;;;;;;;;6281762;28;20294;-69
2023/11/25 08:12:18;;;;;;;1.30;1.30;;;;;;;;;;6273955;28;20299;-71
2023/11/25 08:15:22;;;;;;;1.30;1.30;;;;;;;;;;6268973;28;20323;-70
2023/11/25 08:18:27;;;;;;;1.40;1.37;;;;;;;;;;6262956;28;20590;-71
2023/11/25 08:21:31;;;;;;;1.43;1.33;;;;;;;;;;6253874;28;20306;-70
2023/11/25 08:24:35;;;;;;;1.63;1.60;;;;;;;;;;6280927;28;20317;-69
2023/11/25 08:27:39;;;;;;;1.37;1.37;;;;;;;;;;6280691;28;20315;-69
2023/11/25 08:30:43;;;;;;;1.67;1.60;;;;;;;;;;6262486;28;20298;-69
2023/11/25 08:33:48;;;;;;;1.70;1.70;;;;;;;;;;6280972;28;20295;-70
2023/11/25 08:36:53;;;;;;;1.60;1.60;;;;;;;;;;6280964;28;20315;-69
2023/11/25 08:39:57;;;;;;;2.07;1.40;;;;;;;;;;6280401;28;20299;-70
2023/11/25 08:43:08;;;;;;;1.50;1.50;;;;;;;;;;6281016;28;20286;-70
2023/11/25 08:46:13;;;;;;;1.63;1.40;;;;;;;;;;6272542;28;20299;-69
2023/11/25 08:49:21;;;;;;;1.57;1.47;;;;;;;;;;6280765;28;20301;-70
2023/11/25 08:52:27;;;;;;;1.27;1.20;;;;;;;;;;6280336;28;20422;-68
2023/11/25 08:55:31;;;;;;;3.70;1.20;;;;;;;;;;6279821;28;20298;-69
2023/11/25 08:58:36;;;;;;;4.00;1.30;;;;;;;;;;6280018;28;20294;-70
2023/11/25 09:01:42;;;;;;;1.37;1.30;;;;;;;;;;6278744;28;20290;-69
2023/11/25 09:04:47;;;;;;;1.23;1.23;;;;;;;;;;6278851;28;20291;-69
2023/11/25 09:08:09;;;;;;;1.30;1.30;;;;;;;;;;6280019;28;20295;-69
2023/11/25 09:11:13;;;;;;;1.80;1.53;;;;;;;;;;6280355;28;20414;-69
2023/11/25 09:14:18;;;;;;;1.00;1.00;;;;;;;;;;6279508;28;20684;-69
2023/11/25 09:17:22;;;;;;;1.30;1.30;;;;;;;;;;6279900;28;20302;-69
2023/11/25 09:20:28;;;;;;;1.60;1.40;;;;;;;;;;6279426;28;20311;-71
2023/11/25 09:23:32;;;;;;;1.57;1.57;;;;;;;;;;6279384;28;20283;-68
2023/11/25 09:26:36;;;;;;;1.43;1.43;;;;;;;;;;6279634;28;20313;-67
2023/11/25 09:29:42;;;;;;;1.50;1.40;;;;;;;;;;6278833;28;20286;-68
2023/11/25 09:32:45;;;;;;;1.93;1.33;;;;;;;;;;6278866;28;20602;-68
2023/11/25 09:35:51;;;;;;;1.70;1.20;;;;;;;;;;6279373;28;20302;-69
2023/11/25 09:38:55;;;;;;;1.33;1.27;;;;;;;;;;6278558;28;20298;-68
2023/11/25 09:41:59;;;;;;;1.50;1.40;;;;;;;;;;6269426;28;20287;-68
2023/11/25 09:45:03;;;;;;;1.23;1.23;;;;;;;;;;6278979;28;20294;-69
2023/11/25 09:48:08;;;;;;;1.30;1.30;;;;;;;;;;6278395;28;20476;-70
2023/11/25 09:51:15;;;;;;;2.30;2.10;;;;;;;;;;6279117;28;20611;-69
2023/11/25 09:54:21;;;;;;;1.80;1.80;;;;;;;;;;6278471;28;20303;-69
2023/11/25 09:57:32;;;;;;;1.50;1.40;;;;;;;;;;6279030;28;20291;-69
2023/11/25 10:00:37;;;;;;;1.90;1.40;;;;;;;;;;6250381;28;20287;-70
2023/11/25 10:03:43;;;;;;;1.37;1.37;;;;;;;;;;6278055;28;20302;-72
2023/11/25 10:06:54;;;;;;;1.30;1.30;;;;;;;;;;6278911;28;20310;-69
2023/11/25 10:09:58;;;;;;;1.20;1.20;;;;;;;;;;6278714;28;20295;-70
2023/11/25 10:13:03;;;;;;;1.73;1.63;;;;;;;;;;6279133;28;20314;-71
2023/11/25 10:16:08;;;;;;;1.33;1.33;;;;;;;;;;6277613;28;20290;-69
2023/11/25 10:19:19;;;;;;;1.57;1.50;;;;;;;;;;6282554;28;20354;-71
2023/11/25 10:22:25;;;;;;;1.13;1.13;;;;;;;;;;6279032;28;20293;-67
2023/11/25 10:25:32;;;;;;;1.43;1.33;;;;;;;;;;6278048;28;20321;-67
2023/11/25 10:28:36;;;;;;;1.20;1.20;;;;;;;;;;6283360;28;20301;-70
2023/11/25 10:31:42;;;;;;;1.40;1.40;;;;;;;;;;6269473;28;20584;-69
2023/11/25 10:34:47;;;;;;;1.40;1.10;;;;;;;;;;6277925;28;20301;-71
2023/11/25 10:37:52;;;;;;;1.43;1.30;;;;;;;;;;6277972;28;20301;-71
2023/11/25 10:41:00;;;;;;;1.10;1.10;;;;;;;;;;6278131;28;20305;-72
2023/11/25 10:44:06;;;;;;;1.13;1.13;;;;;;;;;;6278132;28;20346;-68
2023/11/25 10:47:29;;;;;;;1.43;1.40;;;;;;;;;;6279261;28;20315;-70
2023/11/25 10:50:33;;;;;;;1.30;1.30;;;;;;;;;;6278469;28;20394;-71
2023/11/25 10:53:41;;;;;;;1.40;1.40;;;;;;;;;;6278415;28;20581;-69
2023/11/25 10:56:45;;;;;;;1.63;1.20;;;;;;;;;;6278643;28;20310;-71
2023/11/25 10:59:50;;;;;;;1.00;1.00;;;;;;;;;;6276651;28;20294;-70
2023/11/25 11:02:56;;;;;;;1.03;1.03;;;;;;;;;;6253303;28;20334;-70
2023/11/25 11:06:04;;;;;;;1.10;1.10;;;;;;;;;;6262569;28;20350;-70
2023/11/25 11:09:16;;;;;;;1.30;1.30;;;;;;;;;;6277567;28;20425;-72
2023/11/25 11:12:26;;;;;;;1.23;1.23;;;;;;;;;;6277172;28;20313;-69
2023/11/25 11:15:31;;;;;;;1.27;1.27;;;;;;;;;;6277833;28;20288;-70
2023/11/25 11:18:37;;;;;;;1.57;1.27;;;;;;;;;;6277823;28;20293;-71
2023/11/25 11:21:44;;;;;;;1.30;1.30;;;;;;;;;;6278009;28;20294;-69
2023/11/25 11:24:59;;;;;;;2.33;1.47;;;;;;;;;;6278031;28;20294;-69
2023/11/25 11:28:10;;;;;;;1.00;1.00;;;;;;;;;;6280044;28;20314;-69
2023/11/25 11:31:46;;;;;;;1.30;1.30;;;;;;;;;;6282637;28;20287;-69
2023/11/25 11:34:51;;;;;;;1.00;1.00;;;;;;;;;;6266854;28;20311;-70
2023/11/25 11:37:55;;;;;;;1.40;1.40;;;;;;;;;;6282043;28;20294;-68
2023/11/25 11:41:27;;;;;;;2.00;1.40;;;;;;;;;;6282213;28;20309;-70
2023/11/25 11:44:31;;;;;;;1.20;1.20;;;;;;;;;;6282088;28;20289;-69
2023/11/25 11:47:34;;;;;;;1.10;1.10;;;;;;;;;;6282161;28;20318;-69
2023/11/25 11:50:42;;;;;;;1.23;1.23;;;;;;;;;;6263983;28;20286;-69
2023/11/25 11:53:46;;;;;;;1.30;1.23;;;;;;;;;;6281481;28;20293;-67
2023/11/25 11:57:02;;;;;;;2.60;1.30;;;;;;;;;;6281999;28;20457;-68
2023/11/25 12:00:11;;;;;;;2.20;2.00;;;;;;;;;;6279915;28;20306;-67
2023/11/25 12:03:16;;;;;;;1.43;1.30;;;;;;;;;;6281164;28;20318;-70
2023/11/25 12:06:23;;;;;;;1.30;1.30;;;;;;;;;;6281434;28;20307;-70
2023/11/25 12:09:27;;;;;;;1.30;1.30;;;;;;;;;;6281589;28;20307;-68
2023/11/25 12:12:34;;;;;;;1.10;1.10;;;;;;;;;;6281725;28;20285;-69
2023/11/25 12:15:38;;;;;;;1.17;1.17;;;;;;;;;;6281880;28;20306;-71
2023/11/25 12:18:42;;;;;;;1.33;1.30;;;;;;;;;;6282296;28;20571;-69
2023/11/25 12:21:45;;;;;;;1.17;1.17;;;;;;;;;;6281751;28;20302;-69
2023/11/25 12:24:49;;;;;;;1.30;1.30;;;;;;;;;;6281352;28;20302;-69
2023/11/25 12:27:58;;;;;;;1.20;1.20;;;;;;;;;;6280278;28;20305;-68
2023/11/25 12:31:02;;;;;;;1.20;1.20;;;;;;;;;;6281362;28;20282;-69
2023/11/25 12:34:06;;;;;;;1.83;1.37;;;;;;;;;;6281289;28;20401;-67
2023/11/25 12:37:12;;;;;;;1.17;1.17;;;;;;;;;;6281346;28;20302;-70
2023/11/25 12:40:18;;;;;;;1.20;1.20;;;;;;;;;;6280634;28;20302;-68
2023/11/25 12:43:23;;;;;;;1.30;1.20;;;;;;;;;;6281545;28;20302;-69
2023/11/25 12:46:27;;;;;;;1.20;1.20;;;;;;;;;;6281004;28;20322;-69
2023/11/25 12:49:31;;;;;;;1.70;1.60;;;;;;;;;;6280953;28;20734;-69
2023/11/25 12:52:35;;;;;;;1.27;1.27;;;;;;;;;;6280343;28;20466;-71
2023/11/25 12:55:41;;;;;;;1.40;1.30;;;;;;;;;;6280503;28;20439;-69
2023/11/25 12:58:46;;;;;;;1.20;1.20;;;;;;;;;;6254316;28;20351;-76
2023/11/25 13:01:50;;;;;;;1.60;1.50;;;;;;;;;;6265565;28;20298;-70
2023/11/25 13:04:56;;;;;;;3.27;1.67;;;;;;;;;;6279556;28;20576;-68
2023/11/25 13:08:00;;;;;;;1.70;1.63;;;;;;;;;;6279993;28;20302;-70
2023/11/25 13:11:08;;;;;;;1.53;1.43;;;;;;;;;;6280327;28;20300;-69
2023/11/25 13:14:13;;;;;;;1.40;1.30;;;;;;;;;;6285416;28;20480;-69
2023/11/25 13:17:17;;;;;;;1.60;1.50;;;;;;;;;;6271918;28;20290;-70
2023/11/25 13:20:21;;;;;;;1.40;1.40;;;;;;;;;;6280027;28;20306;-70
2023/11/25 13:23:25;;;;;;;1.30;1.30;;;;;;;;;;6279673;28;20583;-69
2023/11/25 13:26:29;;;;;;;1.40;1.40;;;;;;;;;;6280476;28;20391;-68
2023/11/25 13:29:34;;;;;;;1.50;1.50;;;;;;;;;;6279501;28;20373;-69
2023/11/25 13:32:38;;;;;;;2.30;1.73;;;;;;;;;;6279594;28;20298;-69
2023/11/25 13:35:47;;;;;;;1.43;1.43;;;;;;;;;;6280956;28;20306;-72
2023/11/25 13:38:53;;;;;;;1.50;1.50;;;;;;;;;;6261543;28;20322;-73
2023/11/25 13:41:57;;;;;;;1.70;1.70;;;;;;;;;;6279751;28;20301;-71
2023/11/25 13:45:04;;;;;;;1.63;1.53;;;;;;;;;;6279333;28;20304;-69
2023/11/25 13:48:07;;;;;;;1.50;1.50;;;;;;;;;;6279020;28;20297;-70
2023/11/25 13:51:11;;;;;;;1.93;1.50;;;;;;;;;;6279331;28;20302;-67
2023/11/25 13:54:15;;;;;;;2.43;1.63;;;;;;;;;;6280109;28;20326;-69
2023/11/25 13:57:20;;;;;;;1.57;1.57;;;;;;;;;;6279037;28;20299;-71
2023/11/25 14:00:25;;;;;;;1.70;1.70;;;;;;;;;;6277610;28;20301;-71
2023/11/25 14:03:30;;;;;;;1.80;1.70;;;;;;;;;;6278260;28;20301;-71
2023/11/25 14:06:34;;;;;;;2.10;1.40;;;;;;;;;;6279145;28;20313;-69
2023/11/25 14:09:39;;;;;;;1.80;1.67;;;;;;;;;;6278728;28;20316;-69
2023/11/25 14:12:43;;;;;;;2.00;1.80;;;;;;;;;;6278699;28;20302;-68
2023/11/25 14:15:48;;;;;;;1.20;1.20;;;;;;;;;;6279588;28;20378;-68
2023/11/25 14:18:52;;;;;;;1.60;1.60;;;;;;;;;;6284170;28;20310;-68
2023/11/25 14:21:56;;;;;;;1.80;1.80;;;;;;;;;;6279133;28;20310;-68
2023/11/25 14:25:00;;;;;;;2.37;1.60;;;;;;;;;;6278142;28;20298;-69
2023/11/25 14:28:04;;;;;;;1.40;1.40;;;;;;;;;;6278303;28;20325;-69
2023/11/25 14:31:09;;;;;;;2.20;1.67;;;;;;;;;;6278691;28;20302;-68
2023/11/25 14:34:14;;;;;;;1.80;1.70;;;;;;;;;;6277694;28;20298;-68
2023/11/25 14:37:18;;;;;;;2.73;1.77;;;;;;;;;;6278192;28;20302;-68
2023/11/25 14:40:23;;;;;;;1.80;1.80;;;;;;;;;;6277744;28;20298;-69
2023/11/25 14:43:28;;;;;;;1.80;1.70;;;;;;;;;;6277959;28;20290;-68
2023/11/25 14:46:33;;;;;;;1.50;1.50;;;;;;;;;;6251504;28;20297;-68
2023/11/25 14:49:37;;;;;;;1.77;1.77;;;;;;;;;;6278410;28;20602;-69
2023/11/25 14:52:41;;;;;;;1.80;1.73;;;;;;;;;;6250630;28;20626;-68
2023/11/25 14:55:46;;;;;;;1.97;1.90;;;;;;;;;;6278365;28;20302;-68
2023/11/25 14:58:51;;;;;;;2.30;2.20;;;;;;;;;;6275975;28;20669;-70
2023/11/25 15:01:56;;;;;;;1.90;1.80;;;;;;;;;;6261136;28;20290;-68
2023/11/25 15:05:00;;;;;;;2.47;2.33;;;;;;;;;;6282261;28;20320;-68
2023/11/25 15:08:04;;;;;;;1.90;1.83;;;;;;;;;;6282476;28;20588;-68
2023/11/25 15:11:09;;;;;;;1.97;1.97;;;;;;;;;;6283157;28;20293;-71
2023/11/25 15:14:13;;;;;;;2.20;2.00;;;;;;;;;;6282871;28;20302;-70
2023/11/25 15:17:18;;;;;;;1.87;1.83;;;;;;;;;;6282619;28;20285;-70
2023/11/25 15:20:23;;;;;;;1.97;1.87;;;;;;;;;;6283560;28;20313;-69
2023/11/25 15:23:27;;;;;;;1.87;1.87;;;;;;;;;;6283005;28;20303;-70
2023/11/25 15:26:31;;;;;;;2.27;1.80;;;;;;;;;;6283212;28;20314;-70
2023/11/25 15:29:35;;;;;;;1.70;1.70;;;;;;;;;;6281668;28;20298;-71
2023/11/25 15:32:42;;;;;;;1.93;1.93;;;;;;;;;;6255034;28;20236;-70
2023/11/25 15:35:46;;;;;;;2.03;1.70;;;;;;;;;;6282446;28;20398;-68
2023/11/25 15:38:50;;;;;;;1.63;1.60;;;;;;;;;;6282262;28;20289;-69
2023/11/25 15:41:54;;;;;;;4.93;1.70;;;;;;;;;;6282246;28;20293;-69
2023/11/25 15:44:58;;;;;;;2.03;1.50;;;;;;;;;;6281988;28;20302;-68
2023/11/25 15:48:04;;;;;;;1.53;1.50;;;;;;;;;;6273634;28;20293;-70
2023/11/25 15:51:07;;;;;;;2.67;1.83;;;;;;;;;;6282194;28;20561;-69
2023/11/25 15:54:11;;;;;;;2.40;2.20;;;;;;;;;;6281943;28;20488;-68
2023/11/25 15:57:15;;;;;;;1.90;1.90;;;;;;;;;;6281963;28;20289;-70
2023/11/25 16:00:19;;;;;;;1.93;1.80;;;;;;;;;;6279721;28;20302;-69
2023/11/25 16:03:25;;;;;;;2.10;1.53;;;;;;;;;;6280994;28;20630;-69
2023/11/25 16:06:29;;;;;;;2.47;1.77;;;;;;;;;;6281644;28;20314;-69
2023/11/25 16:09:35;;;;;;;2.00;1.50;;;;;;;;;;6281309;28;20308;-69
2023/11/25 16:12:39;;;;;;;1.73;1.70;;;;;;;;;;6281253;28;20294;-70
2023/11/25 16:15:43;;;;;;;2.13;2.03;;;;;;;;;;6280494;28;20309;-69
2023/11/25 16:18:48;;;;;;;1.57;1.57;;;;;;;;;;6280353;28;20330;-68
2023/11/25 16:21:54;;;;;;;1.70;1.70;;;;;;;;;;6281481;28;20295;-71
2023/11/25 16:24:58;;;;;;;1.77;1.77;;;;;;;;;;6280748;28;20297;-71
2023/11/25 16:28:02;;;;;;;1.77;1.67;;;;;;;;;;6280218;28;20290;-71
2023/11/25 16:31:06;;;;;;;2.07;1.97;;;;;;;;;;6292576;28;20257;-69
2023/11/25 16:34:15;;;;;;;1.40;1.40;;;;;;;;;;6280245;28;20287;-69
2023/11/25 16:37:19;;;;;;;1.70;1.70;;;;;;;;;;6280804;28;20377;-68
2023/11/25 16:40:23;;;;;;;1.70;1.70;;;;;;;;;;6280114;28;20305;-69
2023/11/25 16:43:27;;;;;;;1.87;1.80;;;;;;;;;;6279792;28;20301;-70
2023/11/25 16:46:30;;;;;;;3.10;1.70;;;;;;;;;;6280888;28;20477;-68
2023/11/25 16:49:36;;;;;;;2.03;1.77;;;;;;;;;;6280413;28;20381;-68
2023/11/25 16:52:44;;;;;;;1.70;1.70;;;;;;;;;;6280113;28;20296;-69
2023/11/25 16:55:48;;;;;;;1.80;1.80;;;;;;;;;;6280813;28;20297;-69
2023/11/25 16:58:52;;;;;;;1.73;1.63;;;;;;;;;;6279278;28;20321;-69
2023/11/25 17:01:57;;;;;;;1.70;1.70;;;;;;;;;;6281084;28;20302;-69
2023/11/25 17:05:02;;;;;;;2.20;2.10;;;;;;;;;;6279402;28;20302;-69
2023/11/25 17:08:07;;;;;;;2.00;2.00;;;;;;;;;;6279746;28;20294;-69
2023/11/25 17:11:10;;;;;;;1.70;1.70;;;;;;;;;;6280016;28;20312;-69
2023/11/25 17:14:14;;;;;;;1.70;1.70;;;;;;;;;;6279574;28;20298;-70
2023/11/25 17:17:18;;;;;;;1.70;1.70;;;;;;;;;;6279531;28;20289;-71
2023/11/25 17:20:23;;;;;;;1.90;1.80;;;;;;;;;;6279875;28;20478;-69
2023/11/25 17:23:27;;;;;;;1.80;1.70;;;;;;;;;;6279469;28;20298;-68
2023/11/25 17:26:31;;;;;;;1.63;1.63;;;;;;;;;;6280263;28;20305;-67
2023/11/25 17:29:35;;;;;;;1.90;1.80;;;;;;;;;;6278631;28;20342;-70
2023/11/25 17:32:38;;;;;;;1.70;1.70;;;;;;;;;;6279272;28;20297;-68
2023/11/25 17:35:44;;;;;;;1.70;1.70;;;;;;;;;;6279428;28;20305;-67
2023/11/25 17:38:47;;;;;;;1.90;1.60;;;;;;;;;;6279119;28;20293;-68
2023/11/25 17:41:51;;;;;;;1.57;1.57;;;;;;;;;;6261300;28;20330;-70
2023/11/25 17:44:55;;;;;;;1.77;1.77;;;;;;;;;;6279179;28;20309;-68
2023/11/25 17:47:59;;;;;;;1.87;1.57;;;;;;;;;;6294034;28;20293;-70
2023/11/25 17:51:04;;;;;;;2.00;2.00;;;;;;;;;;6279213;28;20314;-70
2023/11/25 17:54:10;;;;;;;1.70;1.60;;;;;;;;;;6278420;28;20297;-70
2023/11/25 17:57:18;;;;;;;2.00;1.70;;;;;;;;;;6278835;28;20293;-70
2023/11/25 18:00:22;;;;;;;1.70;1.70;;;;;;;;;;6259016;28;20300;-70
2023/11/25 18:03:26;;;;;;;1.50;1.40;;;;;;;;;;6277962;28;20289;-71
2023/11/25 18:06:32;;;;;;;2.13;1.77;;;;;;;;;;6278729;28;20308;-68
2023/11/25 18:09:35;;;;;;;1.50;1.50;;;;;;;;;;6278046;28;20296;-71
2023/11/25 18:12:39;;;;;;;1.30;1.30;;;;;;;;;;6278170;28;20296;-70
2023/11/25 18:15:44;;;;;;;1.67;1.57;;;;;;;;;;6278489;28;20297;-69
2023/11/25 18:18:48;;;;;;;1.43;1.43;;;;;;;;;;6260648;28;20322;-68
2023/11/25 18:21:55;;;;;;;1.37;1.37;;;;;;;;;;6278746;28;20298;-72
2023/11/25 18:24:59;;;;;;;3.47;2.27;;;;;;;;;;6277911;28;20293;-71
2023/11/25 18:28:03;;;;;;;2.20;2.00;;;;;;;;;;6277521;28;20606;-70
2023/11/25 18:31:07;;;;;;;1.60;1.50;;;;;;;;;;6278305;28;20323;-69